Turquoise — V7KG7 — position and weather

sailwx.info

Track history (hours):
 
Tides and Currents Weather Stations Pressure Air Temp Water Temp Dewpoint Dewpoint Depression Visibility Wind Speed Wind Dir Waves Ship Positions

Turquoise

Last reported at 2018-Jun-18 14:59 UTC. Time now 2018-Jun-20 09:26 UTC.
Position N 45°38' W 073°29'.

Length 183 m; draft 11.5 m.

Type: Tanker. MMSI: 538006160.

Date/timePositionNaut miles runAvg speedWind from/ knotsBaromVisibWave heightAir tempDewpointWater temp
2018-Jun-18 14:59N 45°38' W 073°29'3 6.8
2018-Jun-18 14:30N 45°41' W 073°27'4 7.8
2018-Jun-18 14:00N 45°44' W 073°25'4 8.0
2018-Jun-18 13:30N 45°47' W 073°21'4 8.4
2018-Jun-18 13:00N 45°50' W 073°17'4 8.2
2018-Jun-18 12:30N 45°54' W 073°14'4 7.9
2018-Jun-18 12:00N 45°58' W 073°12'4 8.1
2018-Jun-18 11:30N 46°01' W 073°10'4 7.3
2018-Jun-18 11:00N 46°04' W 073°06'4 8.4
2018-Jun-18 10:30N 46°05' W 073°00'86 9.0
2018-Jun-18 00:57N 46°48' W 071°12'  
2018-Jun-08 16:40N 60°47' E 004°18'212.9
2018-Jun-08 16:30N 60°46' E 004°23'611.8
2018-Jun-08 16:00N 60°46' E 004°35'5 9.3
2018-Jun-08 15:30N 60°44' E 004°44'4 7.1
2018-Jun-08 15:00N 60°48' E 004°44'  
Track history (hours):
 
Tides and Currents Weather Stations Pressure Air Temp Water Temp Dewpoint Dewpoint Depression Visibility Wind Speed Wind Dir Waves Ship Positions

Turquoise

Last reported at 2018-Jun-18 14:59 UTC. Time now 2018-Jun-20 09:26 UTC.
Position N 45°38' W 073°29'.

Length 183 m; draft 11.5 m.

Type: Tanker. MMSI: 538006160.

Date/timePositionNaut miles runAvg speedWind from/ knotsBaromVisibWave heightAir tempDewpointWater temp
2018-Jun-18 14:59N 45°38' W 073°29'3 6.8
2018-Jun-18 14:30N 45°41' W 073°27'4 7.8
2018-Jun-18 14:00N 45°44' W 073°25'4 8.0
2018-Jun-18 13:30N 45°47' W 073°21'4 8.4
2018-Jun-18 13:00N 45°50' W 073°17'4 8.2
2018-Jun-18 12:30N 45°54' W 073°14'4 7.9
2018-Jun-18 12:00N 45°58' W 073°12'4 8.1
2018-Jun-18 11:30N 46°01' W 073°10'4 7.3
2018-Jun-18 11:00N 46°04' W 073°06'4 8.4
2018-Jun-18 10:30N 46°05' W 073°00'86 9.0
2018-Jun-18 00:57N 46°48' W 071°12'  
2018-Jun-08 16:40N 60°47' E 004°18'212.9
2018-Jun-08 16:30N 60°46' E 004°23'611.8
2018-Jun-08 16:00N 60°46' E 004°35'5 9.3
2018-Jun-08 15:30N 60°44' E 004°44'4 7.1
2018-Jun-08 15:00N 60°48' E 004°44'  

Dump ship's entire track history